createdAt,value
2018-07-09T00:01:07.092Z,12.93
2018-07-09T00:03:35.621Z,10.10
2018-07-09T00:06:04.149Z,12.03
2018-07-09T00:08:32.824Z,10.50
2018-07-09T00:11:05.360Z,10.93
2018-07-09T00:13:34.931Z,10.80
2018-07-09T00:16:03.859Z,11.07
2018-07-09T00:18:32.547Z,10.17
2018-07-09T00:21:01.130Z,11.13
2018-07-09T00:23:29.711Z,13.30
2018-07-09T00:25:58.910Z,10.20
2018-07-09T00:28:27.798Z,11.10
2018-07-09T00:30:56.221Z,9.50
2018-07-09T00:33:25.956Z,11.60
2018-07-09T00:35:54.438Z,12.50
2018-07-09T00:38:22.886Z,11.37
2018-07-09T00:40:51.317Z,10.97
2018-07-09T00:43:20.396Z,10.80
2018-07-09T00:45:48.876Z,10.00
2018-07-09T00:48:19.540Z,9.73
2018-07-09T00:50:48.310Z,9.83
2018-07-09T00:53:16.936Z,10.87
2018-07-09T00:55:45.362Z,10.67
2018-07-09T00:58:14.084Z,9.87
2018-07-09T01:00:49.189Z,10.10
2018-07-09T01:03:17.788Z,16.30
2018-07-09T01:05:46.830Z,12.60
2018-07-09T01:08:16.028Z,9.47
2018-07-09T01:10:55.912Z,9.37
2018-07-09T01:13:45.698Z,9.07
2018-07-09T01:16:14.130Z,9.03
2018-07-09T01:18:43.367Z,9.57
2018-07-09T01:21:13.587Z,9.43
2018-07-09T01:23:42.913Z,8.80
2018-07-09T01:26:11.485Z,8.80
2018-07-09T01:28:40.983Z,10.80
2018-07-09T01:31:10.013Z,9.10
2018-07-09T01:33:38.799Z,8.87
2018-07-09T01:36:07.558Z,9.80
2018-07-09T01:38:36.374Z,7.87
2018-07-09T01:41:05.050Z,9.37
2018-07-09T01:43:33.712Z,8.53
2018-07-09T01:46:02.204Z,8.10
2018-07-09T01:48:30.869Z,8.47
2018-07-09T01:50:59.385Z,8.20
2018-07-09T01:53:28.158Z,8.80
2018-07-09T01:55:57.168Z,6.43
2018-07-09T01:58:26.398Z,7.37
2018-07-09T02:00:54.827Z,9.03
2018-07-09T02:03:23.442Z,8.50
2018-07-09T02:05:51.862Z,7.87
2018-07-09T02:08:20.244Z,7.20
2018-07-09T02:10:48.658Z,8.23
2018-07-09T02:13:17.651Z,6.90
2018-07-09T02:15:46.064Z,7.53
2018-07-09T02:18:14.601Z,7.10
2018-07-09T02:20:43.103Z,8.57
2018-07-09T02:23:11.675Z,6.70
2018-07-09T02:25:40.277Z,6.40
2018-07-09T02:28:08.816Z,6.37
2018-07-09T02:30:37.292Z,6.73
2018-07-09T02:33:05.912Z,6.20
2018-07-09T02:35:34.321Z,6.03
2018-07-09T02:38:02.813Z,5.57
2018-07-09T02:40:31.416Z,6.30
2018-07-09T02:42:59.834Z,6.97
2018-07-09T02:45:28.334Z,6.27
2018-07-09T02:47:56.761Z,5.47
2018-07-09T02:50:25.177Z,6.63
2018-07-09T02:52:54.058Z,6.33
2018-07-09T02:55:22.538Z,5.80
2018-07-09T02:57:51.334Z,5.80
2018-07-09T03:00:19.935Z,6.17
2018-07-09T03:02:48.713Z,5.63
2018-07-09T03:05:17.417Z,5.93
2018-07-09T03:07:45.991Z,4.83
2018-07-09T03:10:14.283Z,6.10
2018-07-09T03:12:42.784Z,6.70
2018-07-09T03:15:11.335Z,4.70
2018-07-09T03:17:39.776Z,5.00
2018-07-09T03:20:08.160Z,5.10
2018-07-09T03:22:36.585Z,5.17
2018-07-09T03:25:05.172Z,4.70
2018-07-09T03:27:33.603Z,4.20
2018-07-09T03:30:02.273Z,4.57
2018-07-09T03:32:30.897Z,6.13
2018-07-09T03:34:59.471Z,4.70
2018-07-09T03:37:28.180Z,4.90
2018-07-09T03:39:56.734Z,4.53
2018-07-09T03:42:25.139Z,5.07
2018-07-09T03:44:53.779Z,4.87
2018-07-09T03:47:22.530Z,4.53
2018-07-09T03:49:50.932Z,4.27
2018-07-09T03:52:19.693Z,4.20
2018-07-09T03:54:48.612Z,4.90
2018-07-09T03:57:17.101Z,4.37
2018-07-09T03:59:45.508Z,4.30
2018-07-09T04:02:13.967Z,5.03
2018-07-09T04:04:42.366Z,4.37
2018-07-09T04:07:11.575Z,5.20
2018-07-09T04:09:39.955Z,4.20
2018-07-09T04:12:08.345Z,4.40
2018-07-09T04:14:36.824Z,4.10
2018-07-09T04:17:05.221Z,4.93
2018-07-09T04:19:33.609Z,5.87
2018-07-09T04:22:02.035Z,5.27
2018-07-09T04:24:30.691Z,4.27
2018-07-09T04:26:59.125Z,3.83
2018-07-09T04:29:27.664Z,4.53
2018-07-09T04:31:56.163Z,5.03
2018-07-09T04:34:25.283Z,4.40
2018-07-09T04:36:54.127Z,4.23
2018-07-09T04:39:22.608Z,4.47
2018-07-09T04:41:51.232Z,5.30
2018-07-09T04:44:20.335Z,5.37
2018-07-09T04:46:49.024Z,5.20
2018-07-09T04:49:17.472Z,4.37
2018-07-09T04:51:46.209Z,4.20
2018-07-09T04:54:15.273Z,4.73
2018-07-09T04:56:43.681Z,5.03
2018-07-09T04:59:12.264Z,3.80
2018-07-09T05:01:40.829Z,4.97
2018-07-09T05:04:09.985Z,3.97
2018-07-09T05:06:38.563Z,3.90
2018-07-09T05:09:07.601Z,4.33
2018-07-09T05:11:35.800Z,4.47
2018-07-09T05:14:04.304Z,3.90
2018-07-09T05:16:33.245Z,3.40
2018-07-09T05:19:01.873Z,3.83
2018-07-09T05:21:31.095Z,3.33
2018-07-09T05:23:59.547Z,3.17
2018-07-09T05:26:27.693Z,3.20
2018-07-09T05:28:56.136Z,4.03
2018-07-09T05:31:24.602Z,3.73
2018-07-09T05:33:53.254Z,3.93
2018-07-09T05:36:21.717Z,3.97
2018-07-09T05:38:50.944Z,3.50
2018-07-09T05:41:19.672Z,4.63
2018-07-09T05:43:48.119Z,4.47
2018-07-09T05:46:16.341Z,5.27
2018-07-09T05:48:45.272Z,6.73
2018-07-09T05:51:14.668Z,10.20
2018-07-09T05:53:43.278Z,9.17
2018-07-09T05:56:12.128Z,7.13
2018-07-09T05:58:41.160Z,7.77
2018-07-09T06:01:09.421Z,6.80
2018-07-09T06:03:37.810Z,7.70
2018-07-09T06:06:06.191Z,6.90
2018-07-09T06:08:34.801Z,11.97
2018-07-09T06:11:03.292Z,7.17
2018-07-09T06:13:32.020Z,7.73
2018-07-09T06:16:01.032Z,8.97
2018-07-09T06:18:29.109Z,8.13
2018-07-09T06:20:58.793Z,6.80
2018-07-09T06:23:28.327Z,9.77
2018-07-09T06:25:57.483Z,9.53
2018-07-09T06:28:26.220Z,7.17
2018-07-09T06:30:54.654Z,7.53
2018-07-09T06:33:23.261Z,8.07
2018-07-09T06:35:51.886Z,11.97
2018-07-09T06:38:20.286Z,6.57
2018-07-09T06:40:48.997Z,7.27
2018-07-09T06:43:17.494Z,12.03
2018-07-09T06:45:46.408Z,8.77
2018-07-09T06:48:15.010Z,9.30
2018-07-09T06:50:43.770Z,9.17
2018-07-09T06:53:12.701Z,9.47
2018-07-09T06:55:41.172Z,8.27
2018-07-09T06:58:09.665Z,11.50
2018-07-09T07:00:38.243Z,7.13
2018-07-09T07:03:06.731Z,6.13
2018-07-09T07:05:35.310Z,8.53
2018-07-09T07:08:03.913Z,6.33
2018-07-09T07:10:32.439Z,6.67
2018-07-09T07:13:01.134Z,6.07
2018-07-09T07:15:29.565Z,5.43
2018-07-09T07:17:58.027Z,6.70
2018-07-09T07:20:26.426Z,6.37
2018-07-09T07:22:56.026Z,5.67
2018-07-09T07:25:24.725Z,4.00
2018-07-09T07:27:53.691Z,5.10
2018-07-09T07:30:22.368Z,4.73
2018-07-09T07:32:51.072Z,5.80
2018-07-09T07:35:19.808Z,3.90
2018-07-09T07:37:48.556Z,5.60
2018-07-09T07:40:17.125Z,4.93
2018-07-09T07:42:46.284Z,4.77
2018-07-09T07:45:15.399Z,3.50
2018-07-09T07:47:44.175Z,4.33
2018-07-09T07:50:13.209Z,3.97
2018-07-09T07:52:41.585Z,4.93
2018-07-09T07:55:10.261Z,6.93
2018-07-09T07:57:38.702Z,3.03
2018-07-09T08:00:08.418Z,5.60
2018-07-09T08:02:37.398Z,3.63
2018-07-09T08:05:06.227Z,4.33
2018-07-09T08:07:35.701Z,3.87
2018-07-09T08:10:04.793Z,4.87
2018-07-09T08:13:13.742Z,3.33
2018-07-09T08:15:02.382Z,5.33
2018-07-09T08:17:31.082Z,4.37
2018-07-09T08:19:59.602Z,2.67
2018-07-09T08:22:28.327Z,4.00
2018-07-09T08:24:56.855Z,4.57
2018-07-09T08:27:25.605Z,5.53
2018-07-09T08:29:54.492Z,4.67
2018-07-09T08:32:23.473Z,3.47
2018-07-09T08:34:53.097Z,6.03
2018-07-09T08:37:21.616Z,6.40
2018-07-09T08:39:51.221Z,5.77
2018-07-09T08:42:19.863Z,4.37
2018-07-09T08:44:47.973Z,3.90
2018-07-09T08:47:16.704Z,3.57
2018-07-09T08:49:45.374Z,4.23
2018-07-09T08:52:14.049Z,3.67
2018-07-09T08:54:42.672Z,4.40
2018-07-09T08:57:11.467Z,7.30
2018-07-09T08:59:40.350Z,4.73
2018-07-09T09:02:09.567Z,6.63
2018-07-09T09:04:37.908Z,5.77
2018-07-09T09:07:06.521Z,4.07
2018-07-09T09:09:35.008Z,5.30
2018-07-09T09:12:03.585Z,5.20
2018-07-09T09:14:32.365Z,4.63
2018-07-09T09:17:01.560Z,4.60
2018-07-09T09:19:29.895Z,5.63
2018-07-09T09:21:58.401Z,3.23
2018-07-09T09:24:27.707Z,3.80
2018-07-09T09:26:57.312Z,4.30
2018-07-09T09:29:26.288Z,3.67
2018-07-09T09:31:55.989Z,4.40
2018-07-09T09:34:25.714Z,4.63
2018-07-09T09:36:54.775Z,6.50
2018-07-09T09:39:23.695Z,5.23
2018-07-09T09:41:53.347Z,6.53
2018-07-09T09:44:22.944Z,4.83
2018-07-09T09:46:52.296Z,6.60
2018-07-09T09:49:22.311Z,4.50
2018-07-09T09:51:51.423Z,5.17
2018-07-09T09:54:22.948Z,6.50
2018-07-09T09:56:53.002Z,5.43
2018-07-09T09:59:23.309Z,4.50
2018-07-09T10:01:52.830Z,5.93
2018-07-09T10:04:21.851Z,5.63
2018-07-09T10:06:50.840Z,5.37
2018-07-09T10:09:20.036Z,7.03
2018-07-09T10:11:49.228Z,6.50
2018-07-09T10:14:19.272Z,7.97
2018-07-09T10:16:48.860Z,6.83
2018-07-09T10:19:17.655Z,5.93
2018-07-09T10:21:56.814Z,6.10
2018-07-09T10:24:27.159Z,7.03
2018-07-09T10:26:56.419Z,7.00
2018-07-09T10:29:26.519Z,10.90
2018-07-09T10:31:56.220Z,6.33
2018-07-09T10:34:25.629Z,6.37
2018-07-09T10:36:55.029Z,7.10
2018-07-09T10:39:24.748Z,8.40
2018-07-09T10:41:53.845Z,7.17
2018-07-09T10:44:23.118Z,7.73
2018-07-09T10:46:52.787Z,7.97
2018-07-09T10:49:22.356Z,8.47
2018-07-09T10:51:52.202Z,7.50
2018-07-09T10:54:21.696Z,7.50
2018-07-09T10:56:50.679Z,10.20
2018-07-09T10:59:19.276Z,10.13
2018-07-09T11:01:48.304Z,9.30
2018-07-09T11:04:17.402Z,9.23
2018-07-09T11:06:46.345Z,9.90
2018-07-09T11:09:15.814Z,10.83
2018-07-09T11:11:45.347Z,9.93
2018-07-09T11:14:15.556Z,11.83
2018-07-09T11:16:45.623Z,11.30
2018-07-09T11:19:15.631Z,11.10
2018-07-09T11:21:45.055Z,10.73
2018-07-09T11:24:14.279Z,9.83
2018-07-09T11:26:43.807Z,10.63
2018-07-09T11:29:12.235Z,10.30
2018-07-09T11:31:41.493Z,12.83
2018-07-09T11:34:09.989Z,10.17
2018-07-09T11:36:38.903Z,9.57
2018-07-09T11:39:08.493Z,11.73
2018-07-09T11:41:37.192Z,9.70
2018-07-09T11:44:05.624Z,11.43
2018-07-09T11:46:34.045Z,10.10
2018-07-09T11:49:02.484Z,10.90
2018-07-09T11:51:30.922Z,11.33
2018-07-09T11:53:59.320Z,11.03
2018-07-09T11:56:29.094Z,9.00
2018-07-09T11:58:57.762Z,10.17
2018-07-09T12:01:27.763Z,9.00
2018-07-09T12:03:57.069Z,13.80
2018-07-09T12:06:26.113Z,10.47
2018-07-09T12:08:54.627Z,9.03
2018-07-09T12:11:23.737Z,10.17
2018-07-09T12:13:52.897Z,10.87
2018-07-09T12:16:22.316Z,10.00
2018-07-09T12:18:53.417Z,9.50
2018-07-09T12:21:22.010Z,10.20
2018-07-09T12:23:51.424Z,11.70
2018-07-09T12:26:20.403Z,10.33
2018-07-09T12:28:49.230Z,9.67
2018-07-09T12:31:18.592Z,10.73
2018-07-09T12:33:48.337Z,8.23
2018-07-09T12:36:17.303Z,10.10
2018-07-09T12:38:46.213Z,8.77
2018-07-09T12:41:15.385Z,9.67
2018-07-09T12:43:44.003Z,10.27
2018-07-09T12:46:12.384Z,8.87
2018-07-09T12:48:40.857Z,9.27
2018-07-09T12:51:09.220Z,8.63
2018-07-09T12:53:37.583Z,9.50
2018-07-09T12:56:06.212Z,8.13
2018-07-09T12:58:35.279Z,8.50
2018-07-09T13:01:03.817Z,8.43
2018-07-09T13:03:32.296Z,8.37
2018-07-09T13:06:01.035Z,7.87
2018-07-09T13:08:29.543Z,7.13
2018-07-09T13:10:58.016Z,8.03
2018-07-09T13:13:27.116Z,7.40
2018-07-09T13:15:55.828Z,7.67
2018-07-09T13:18:24.247Z,7.30
2018-07-09T13:20:52.637Z,6.73
2018-07-09T13:23:21.056Z,7.53
2018-07-09T13:25:49.535Z,7.00
2018-07-09T13:28:17.976Z,8.37
2018-07-09T13:30:46.376Z,7.97
2018-07-09T13:33:15.207Z,10.20
2018-07-09T13:35:43.622Z,11.67
2018-07-09T13:38:12.391Z,10.47
2018-07-09T13:40:40.815Z,9.83
2018-07-09T13:43:09.466Z,5.13
2018-07-09T13:45:37.942Z,6.93
2018-07-09T13:48:06.296Z,7.87
2018-07-09T13:50:35.178Z,5.07
2018-07-09T13:53:03.742Z,4.40
2018-07-09T13:55:32.176Z,4.50
2018-07-09T13:58:00.655Z,4.97
2018-07-09T14:00:29.239Z,3.80
2018-07-09T14:02:57.712Z,4.60
2018-07-09T14:05:26.269Z,5.07
2018-07-09T14:07:54.873Z,3.73
2018-07-09T14:10:23.490Z,3.90
2018-07-09T14:12:52.528Z,3.47
2018-07-09T14:15:21.215Z,4.13
2018-07-09T14:17:49.652Z,3.93
2018-07-09T14:20:31.221Z,4.50
2018-07-09T14:23:00.427Z,6.10
2018-07-09T14:25:29.363Z,3.10
2018-07-09T14:27:58.150Z,3.77
2018-07-09T14:30:26.704Z,3.00
2018-07-09T14:32:55.381Z,2.93
2018-07-09T14:35:24.102Z,3.13
2018-07-09T14:37:53.005Z,3.20
2018-07-09T14:40:22.699Z,2.93
2018-07-09T14:42:51.554Z,3.10
2018-07-09T14:45:20.608Z,2.90
2018-07-09T14:47:49.383Z,2.83
2018-07-09T14:50:18.186Z,3.10
2018-07-09T14:52:47.001Z,3.33
2018-07-09T14:55:16.151Z,3.50
2018-07-09T14:57:45.058Z,4.27
2018-07-09T15:00:15.497Z,4.07
2018-07-09T15:02:44.461Z,3.83
2018-07-09T15:05:13.246Z,3.80
2018-07-09T15:07:41.670Z,6.83
2018-07-09T15:10:10.740Z,3.70
2018-07-09T15:12:39.993Z,3.50
2018-07-09T15:15:09.280Z,4.23
2018-07-09T15:17:37.490Z,3.80
2018-07-09T15:20:06.868Z,3.37
2018-07-09T15:22:35.374Z,3.57
2018-07-09T15:25:03.837Z,3.53
2018-07-09T15:27:32.313Z,3.90
2018-07-09T15:30:01.139Z,3.30
2018-07-09T15:32:30.988Z,4.00
2018-07-09T15:35:00.109Z,3.63
2018-07-09T15:37:29.503Z,5.23
2018-07-09T15:39:58.426Z,3.40
2018-07-09T15:42:26.933Z,3.83
2018-07-09T15:44:55.421Z,4.60
2018-07-09T15:47:23.955Z,4.07
2018-07-09T15:49:52.375Z,3.60
2018-07-09T15:52:21.483Z,3.73
2018-07-09T15:54:49.898Z,3.60
2018-07-09T15:57:18.460Z,3.67
2018-07-09T15:59:47.353Z,3.50
2018-07-09T16:02:16.226Z,3.50
2018-07-09T16:04:44.950Z,4.27
2018-07-09T16:07:13.626Z,3.03
2018-07-09T16:09:42.260Z,5.50
2018-07-09T16:12:11.062Z,3.30
2018-07-09T16:14:39.836Z,3.77
2018-07-09T16:17:08.830Z,3.53
2018-07-09T16:19:38.315Z,3.20
2018-07-09T16:22:07.066Z,5.07
2018-07-09T16:24:36.107Z,4.53
2018-07-09T16:27:04.721Z,4.03
2018-07-09T16:29:34.004Z,3.20
2018-07-09T16:32:02.408Z,3.10
2018-07-09T16:34:30.953Z,3.53
2018-07-09T16:36:59.507Z,4.33
2018-07-09T16:39:27.948Z,3.13
2018-07-09T16:41:56.416Z,3.87
2018-07-09T16:44:24.816Z,4.57
2018-07-09T16:46:53.314Z,4.47
2018-07-09T16:49:21.596Z,3.20
2018-07-09T16:51:49.965Z,3.30
2018-07-09T16:54:18.495Z,4.03
2018-07-09T16:56:46.901Z,5.43
2018-07-09T16:59:15.545Z,3.53
2018-07-09T17:01:44.116Z,3.67
2018-07-09T17:04:13.188Z,3.77
2018-07-09T17:06:41.793Z,3.70
2018-07-09T17:09:10.201Z,3.70
2018-07-09T17:11:38.597Z,3.50
2018-07-09T17:14:06.988Z,3.20
2018-07-09T17:16:35.619Z,4.60
2018-07-09T17:19:04.292Z,4.73
2018-07-09T17:21:32.864Z,4.10
2018-07-09T17:24:01.455Z,4.37
2018-07-09T17:26:29.962Z,5.40
2018-07-09T17:28:58.514Z,4.87
2018-07-09T17:31:27.394Z,5.73
2018-07-09T17:33:56.315Z,5.43
2018-07-09T17:36:24.970Z,4.23
2018-07-09T17:38:53.913Z,5.60
2018-07-09T17:41:24.210Z,5.40
2018-07-09T17:43:53.813Z,5.13
2018-07-09T17:46:22.491Z,4.70
2018-07-09T17:48:52.177Z,4.83
2018-07-09T17:51:21.011Z,7.60
2018-07-09T17:53:49.813Z,5.70
2018-07-09T17:56:18.248Z,6.53
2018-07-09T17:58:47.542Z,8.37
2018-07-09T18:01:15.956Z,6.93
2018-07-09T18:03:44.370Z,7.33
2018-07-09T18:06:13.335Z,6.47
2018-07-09T18:08:42.105Z,8.57
2018-07-09T18:11:10.668Z,7.37
2018-07-09T18:13:39.779Z,7.50
2018-07-09T18:16:09.507Z,7.67
2018-07-09T18:18:38.384Z,7.47
2018-07-09T18:21:07.792Z,7.30
2018-07-09T18:23:36.515Z,8.33
2018-07-09T18:26:04.829Z,7.90
2018-07-09T18:28:33.641Z,6.20
2018-07-09T18:31:02.463Z,7.47
2018-07-09T18:33:31.062Z,6.50
2018-07-09T18:35:59.792Z,6.37
2018-07-09T18:38:28.466Z,6.10
2018-07-09T18:40:57.486Z,7.03
2018-07-09T18:43:25.978Z,7.50
2018-07-09T18:46:01.128Z,9.00
2018-07-09T18:48:29.930Z,7.23
2018-07-09T18:50:58.678Z,6.03
2018-07-09T18:53:27.440Z,5.40
2018-07-09T18:55:55.868Z,7.77
2018-07-09T18:58:24.565Z,7.83
2018-07-09T19:00:53.222Z,7.87
2018-07-09T19:03:21.810Z,7.00
2018-07-09T19:07:02.616Z,11.83
2018-07-09T19:09:32.147Z,7.27
2018-07-09T19:12:02.624Z,6.63
2018-07-09T19:14:34.505Z,8.97
2018-07-09T19:18:15.291Z,9.17
2018-07-09T19:21:58.023Z,10.97
2018-07-09T19:24:25.423Z,8.97
2018-07-09T19:26:52.910Z,9.70
2018-07-09T19:29:21.051Z,10.37
2018-07-09T19:31:48.889Z,11.40
2018-07-09T19:34:16.267Z,7.77
2018-07-09T19:36:43.821Z,7.80
2018-07-09T19:39:12.357Z,10.00
2018-07-09T19:41:40.654Z,8.57
2018-07-09T19:44:08.101Z,4.60
2018-07-09T19:46:35.477Z,6.90
2018-07-09T19:49:03.298Z,7.30
2018-07-09T19:51:33.079Z,5.67
2018-07-09T19:54:00.887Z,5.30
2018-07-09T19:56:29.348Z,7.77
2018-07-09T19:58:57.306Z,7.23
2018-07-09T20:01:24.688Z,5.37
2018-07-09T20:03:52.845Z,5.83
2018-07-09T20:06:21.949Z,4.83
2018-07-09T20:08:54.884Z,6.87
2018-07-09T20:11:27.594Z,5.93
2018-07-09T20:14:02.085Z,5.97
2018-07-09T20:16:35.274Z,5.30
2018-07-09T20:19:04.981Z,7.50
2018-07-09T20:21:32.395Z,5.43
2018-07-09T20:24:00.294Z,5.93
2018-07-09T20:26:28.039Z,7.57
2018-07-09T20:28:55.554Z,6.87
2018-07-09T20:31:23.360Z,7.30
2018-07-09T20:33:51.277Z,7.77
2018-07-09T20:36:18.597Z,8.77
2018-07-09T20:38:46.081Z,8.03
2018-07-09T20:41:13.401Z,5.57
2018-07-09T20:43:40.720Z,7.03
2018-07-09T20:46:08.319Z,6.20
2018-07-09T20:48:35.647Z,5.73
2018-07-09T20:51:03.207Z,9.53
2018-07-09T20:53:31.169Z,5.93
2018-07-09T20:56:04.855Z,9.43
2018-07-09T20:58:32.501Z,6.80
2018-07-09T21:01:00.123Z,8.93
2018-07-09T21:03:27.709Z,6.20
2018-07-09T21:05:55.732Z,5.90
2018-07-09T21:08:24.947Z,6.87
2018-07-09T21:10:53.433Z,5.23
2018-07-09T21:13:21.245Z,6.30
2018-07-09T21:15:48.824Z,8.17
2018-07-09T21:18:16.564Z,6.97
2018-07-09T21:20:44.312Z,5.60
2018-07-09T21:23:12.203Z,4.57
2018-07-09T21:25:39.585Z,4.70
2018-07-09T21:28:07.489Z,8.43
2018-07-09T21:30:35.286Z,5.10
2018-07-09T21:33:03.382Z,6.77
2018-07-09T21:35:30.891Z,5.93
2018-07-09T21:37:58.470Z,7.20
2018-07-09T21:40:26.056Z,6.23
2018-07-09T21:42:53.392Z,6.77
2018-07-09T21:45:20.782Z,5.27
2018-07-09T21:47:59.211Z,6.03
2018-07-09T21:50:17.295Z,7.27
2018-07-09T21:52:44.936Z,5.57
2018-07-09T21:55:13.403Z,8.13
2018-07-09T21:57:40.819Z,5.90
2018-07-09T22:00:08.412Z,7.33
2018-07-09T22:02:35.879Z,6.00
2018-07-09T22:05:03.684Z,6.10
2018-07-09T22:07:31.167Z,6.37
2018-07-09T22:10:00.252Z,6.33
2018-07-09T22:12:27.869Z,5.00
2018-07-09T22:14:55.325Z,5.43
2018-07-09T22:17:22.692Z,7.37
2018-07-09T22:19:50.384Z,5.70
2018-07-09T22:22:17.860Z,5.37
2018-07-09T22:24:45.600Z,5.17
2018-07-09T22:27:12.941Z,4.17
2018-07-09T22:29:40.300Z,6.60
2018-07-09T22:32:09.072Z,4.60
2018-07-09T22:34:37.636Z,5.57
2018-07-09T22:37:06.114Z,6.70
2018-07-09T22:39:34.808Z,5.87
2018-07-09T22:42:03.374Z,4.87
2018-07-09T22:44:31.934Z,8.40
2018-07-09T22:47:00.918Z,5.47
2018-07-09T22:49:29.691Z,4.47
2018-07-09T22:51:58.421Z,5.23
2018-07-09T22:54:27.141Z,5.70
2018-07-09T22:56:55.705Z,6.13
2018-07-09T22:59:25.212Z,5.10
2018-07-09T23:01:53.943Z,5.70
2018-07-09T23:04:22.635Z,6.13
2018-07-09T23:06:51.248Z,8.00
2018-07-09T23:10:33.597Z,5.73
2018-07-09T23:13:24.811Z,9.27
2018-07-09T23:17:03.158Z,5.17
2018-07-09T23:19:42.955Z,5.53
2018-07-09T23:22:18.314Z,6.33
2018-07-09T23:24:45.635Z,9.27
2018-07-09T23:27:13.138Z,8.53
2018-07-09T23:29:41.206Z,9.40
2018-07-09T23:32:08.556Z,5.47
2018-07-09T23:34:35.953Z,5.60
2018-07-09T23:37:03.271Z,6.03
2018-07-09T23:39:31.027Z,5.53
2018-07-09T23:41:58.603Z,7.87
2018-07-09T23:44:25.941Z,6.57
2018-07-09T23:46:53.275Z,5.07
2018-07-09T23:49:20.912Z,5.17
2018-07-09T23:51:48.503Z,4.60
2018-07-09T23:54:15.969Z,4.10
2018-07-09T23:56:54.671Z,3.17
2018-07-09T23:59:34.549Z,3.60
